createdAt,value
2023-04-12T00:00:58.495Z,2.72
2023-04-12T00:03:25.460Z,2.60
2023-04-12T00:05:55.507Z,2.50
2023-04-12T00:08:33.374Z,2.60
2023-04-12T00:11:01.243Z,2.45
2023-04-12T00:13:28.657Z,2.63
2023-04-12T00:15:55.412Z,2.40
2023-04-12T00:18:25.884Z,3.13
2023-04-12T00:20:53.239Z,2.80
2023-04-12T00:23:20.634Z,3.15
2023-04-12T00:25:47.557Z,2.72
2023-04-12T00:28:16.062Z,2.80
2023-04-12T00:30:43.810Z,3.17
2023-04-12T00:33:10.712Z,2.80
2023-04-12T00:35:37.527Z,2.50
2023-04-12T00:38:06.115Z,3.10
2023-04-12T00:40:32.864Z,2.92
2023-04-12T00:42:59.505Z,2.60
2023-04-12T00:45:27.298Z,2.50
2023-04-12T00:47:54.946Z,3.20
2023-04-12T00:50:23.210Z,3.28
2023-04-12T00:52:51.974Z,3.65
2023-04-12T00:55:18.774Z,3.03
2023-04-12T00:57:45.492Z,4.15
2023-04-12T01:00:13.553Z,3.47
2023-04-12T01:02:48.319Z,2.85
2023-04-12T01:05:22.502Z,3.40
2023-04-12T01:08:12.064Z,2.80
2023-04-12T01:10:46.217Z,3.20
2023-04-12T01:13:34.688Z,3.10
2023-04-12T01:16:21.020Z,2.83
2023-04-12T01:18:51.716Z,2.85
2023-04-12T01:21:30.663Z,3.08
2023-04-12T01:24:14.176Z,3.05
2023-04-12T01:26:45.007Z,3.05
2023-04-12T01:29:15.253Z,2.75
2023-04-12T01:31:57.176Z,3.28
2023-04-12T01:34:26.451Z,2.60
2023-04-12T01:36:54.521Z,2.88
2023-04-12T01:39:21.601Z,2.53
2023-04-12T01:41:49.743Z,2.85
2023-04-12T01:44:17.467Z,3.45
2023-04-12T01:46:47.413Z,2.40
2023-04-12T01:49:17.367Z,2.78
2023-04-12T01:51:57.567Z,2.85
2023-04-12T01:54:33.217Z,3.15
2023-04-12T01:57:02.411Z,2.70
2023-04-12T01:59:34.691Z,2.50
2023-04-12T02:02:03.509Z,2.58
2023-04-12T02:04:33.529Z,3.17
2023-04-12T02:07:00.770Z,2.63
2023-04-12T02:09:27.556Z,2.97
2023-04-12T02:11:54.252Z,2.80
2023-04-12T02:14:21.900Z,2.60
2023-04-12T02:16:50.640Z,2.70
2023-04-12T02:19:17.483Z,2.83
2023-04-12T02:21:45.554Z,2.92
2023-04-12T02:24:13.083Z,2.70
2023-04-12T02:26:40.066Z,2.92
2023-04-12T02:29:09.639Z,2.38
2023-04-12T02:31:38.844Z,2.30
2023-04-12T02:34:08.953Z,2.33
2023-04-12T02:36:38.415Z,2.67
2023-04-12T02:39:05.787Z,2.35
2023-04-12T02:41:34.976Z,2.90
2023-04-12T02:44:02.395Z,2.33
2023-04-12T02:46:29.544Z,2.10
2023-04-12T02:48:58.598Z,2.17
2023-04-12T02:51:33.012Z,2.20
2023-04-12T02:54:01.469Z,1.77
2023-04-12T02:56:36.987Z,1.70
2023-04-12T02:59:14.738Z,2.40
2023-04-12T03:02:04.498Z,2.78
2023-04-12T03:04:33.543Z,1.92
2023-04-12T03:07:01.292Z,2.05
2023-04-12T03:09:38.612Z,2.00
2023-04-12T03:12:05.967Z,2.53
2023-04-12T03:14:39.329Z,2.75
2023-04-12T03:17:07.732Z,2.35
2023-04-12T03:19:36.847Z,2.40
2023-04-12T03:22:05.118Z,2.80
2023-04-12T03:24:35.145Z,2.30
2023-04-12T03:27:04.173Z,2.50
2023-04-12T03:29:33.509Z,2.30
2023-04-12T03:32:00.778Z,2.75
2023-04-12T03:34:32.374Z,2.45
2023-04-12T03:37:04.488Z,2.03
2023-04-12T03:39:47.692Z,2.35
2023-04-12T03:42:32.348Z,2.58
2023-04-12T03:45:08.510Z,2.60
2023-04-12T03:47:35.552Z,2.00
2023-04-12T03:50:12.398Z,1.90
2023-04-12T03:52:44.446Z,2.38
2023-04-12T03:55:13.514Z,2.40
2023-04-12T03:57:41.914Z,2.40
2023-04-12T04:00:10.062Z,2.33
2023-04-12T04:03:03.198Z,1.85
2023-04-12T04:05:33.188Z,1.90
2023-04-12T04:08:02.378Z,1.95
2023-04-12T04:10:35.561Z,2.08
2023-04-12T04:13:02.254Z,2.05
2023-04-12T04:15:29.426Z,1.80
2023-04-12T04:17:56.316Z,1.83
2023-04-12T04:20:23.121Z,1.65
2023-04-12T04:22:53.353Z,1.77
2023-04-12T04:25:24.931Z,1.88
2023-04-12T04:27:53.593Z,1.92
2023-04-12T04:30:23.123Z,2.28
2023-04-12T04:32:50.066Z,1.52
2023-04-12T04:35:20.467Z,2.10
2023-04-12T04:38:16.118Z,1.52
2023-04-12T04:40:43.955Z,1.90
2023-04-12T04:43:13.942Z,1.90
2023-04-12T04:45:42.907Z,1.80
2023-04-12T04:48:09.646Z,1.67
2023-04-12T04:50:36.478Z,1.52
2023-04-12T04:53:03.958Z,1.90
2023-04-12T04:55:33.275Z,1.40
2023-04-12T04:57:59.999Z,1.88
2023-04-12T05:00:27.146Z,1.50
2023-04-12T05:02:57.422Z,1.55
2023-04-12T05:05:27.731Z,1.42
2023-04-12T05:08:06.521Z,2.00
2023-04-12T05:10:35.050Z,2.03
2023-04-12T05:13:03.008Z,1.60
2023-04-12T05:15:31.772Z,2.22
2023-04-12T05:17:59.524Z,2.03
2023-04-12T05:20:26.402Z,2.00
2023-04-12T05:22:53.278Z,1.92
2023-04-12T05:25:21.215Z,1.75
2023-04-12T05:27:58.016Z,1.80
2023-04-12T05:30:25.365Z,2.30
2023-04-12T05:32:52.312Z,1.90
2023-04-12T05:35:20.303Z,1.95
2023-04-12T05:37:49.001Z,1.85
2023-04-12T05:40:15.785Z,1.80
2023-04-12T05:42:43.132Z,1.98
2023-04-12T05:45:18.820Z,2.03
2023-04-12T05:47:45.816Z,1.75
2023-04-12T05:50:12.699Z,2.17
2023-04-12T05:52:39.897Z,2.00
2023-04-12T05:55:08.586Z,1.98
2023-04-12T05:57:39.477Z,1.80
2023-04-12T06:00:18.599Z,1.77
2023-04-12T06:02:47.982Z,2.10
2023-04-12T06:05:16.960Z,1.92
2023-04-12T06:07:51.211Z,1.98
2023-04-12T06:10:20.674Z,2.00
2023-04-12T06:12:51.213Z,2.10
2023-04-12T06:15:20.823Z,1.70
2023-04-12T06:20:18.694Z,1.75
2023-04-12T06:22:45.952Z,1.88
2023-04-12T06:25:19.362Z,2.08
2023-04-12T06:27:48.877Z,2.53
2023-04-12T06:30:18.561Z,2.60
2023-04-12T06:32:45.546Z,2.25
2023-04-12T06:35:12.364Z,2.38
2023-04-12T06:37:39.260Z,2.10
2023-04-12T06:40:06.761Z,2.08
2023-04-12T06:42:33.559Z,2.10
2023-04-12T06:45:00.207Z,2.53
2023-04-12T06:47:26.915Z,2.28
2023-04-12T06:49:56.266Z,2.60
2023-04-12T06:52:26.559Z,2.25
2023-04-12T06:54:54.127Z,2.35
2023-04-12T06:57:20.847Z,1.90
2023-04-12T06:59:47.552Z,2.33
2023-04-12T07:02:14.303Z,2.45
2023-04-12T07:04:41.107Z,2.40
2023-04-12T07:07:07.877Z,2.30
2023-04-12T07:09:34.592Z,3.33
2023-04-12T07:12:02.593Z,2.33
2023-04-12T07:14:29.413Z,2.00
2023-04-12T07:16:56.144Z,2.55
2023-04-12T07:19:23.118Z,2.42
2023-04-12T07:21:49.919Z,2.60
2023-04-12T07:24:16.730Z,2.08
2023-04-12T07:26:43.510Z,2.25
2023-04-12T07:29:10.328Z,2.55
2023-04-12T07:31:37.251Z,2.30
2023-04-12T07:34:04.133Z,2.17
2023-04-12T07:36:31.315Z,2.15
2023-04-12T07:38:58.386Z,2.42
2023-04-12T07:41:25.365Z,2.97
2023-04-12T07:43:52.169Z,2.67
2023-04-12T07:46:21.654Z,2.40
2023-04-12T07:48:48.366Z,2.70
2023-04-12T07:51:15.049Z,2.80
2023-04-12T07:53:42.162Z,2.60
2023-04-12T07:56:09.203Z,2.72
2023-04-12T07:58:36.237Z,2.67
2023-04-12T08:01:03.065Z,2.83
2023-04-12T08:03:29.910Z,2.40
2023-04-12T08:05:56.843Z,2.45
2023-04-12T08:08:23.687Z,2.88
2023-04-12T08:10:51.512Z,2.85
2023-04-12T08:13:18.843Z,2.83
2023-04-12T08:15:47.303Z,2.60
2023-04-12T08:18:14.678Z,2.47
2023-04-12T08:20:43.887Z,2.45
2023-04-12T08:23:11.674Z,2.67
2023-04-12T08:25:39.043Z,2.88
2023-04-12T08:28:08.109Z,2.90
2023-04-12T08:30:35.329Z,3.25
2023-04-12T08:33:02.041Z,2.97
2023-04-12T08:35:28.851Z,2.40
2023-04-12T08:37:55.553Z,2.60
2023-04-12T08:40:22.293Z,2.70
2023-04-12T08:42:49.664Z,2.55
2023-04-12T08:45:16.405Z,2.92
2023-04-12T08:47:44.782Z,2.97
2023-04-12T08:50:17.411Z,2.83
2023-04-12T08:55:12.899Z,2.75
2023-04-12T08:57:41.944Z,3.05
2023-04-12T09:00:10.538Z,3.17
2023-04-12T09:02:38.462Z,2.90
2023-04-12T09:05:06.660Z,2.95
2023-04-12T09:07:34.372Z,2.75
2023-04-12T09:10:01.689Z,2.75
2023-04-12T09:12:28.944Z,3.28
2023-04-12T09:15:17.874Z,3.08
2023-04-12T09:17:44.796Z,2.88
2023-04-12T09:20:17.466Z,3.03
2023-04-12T09:22:46.508Z,3.60
2023-04-12T09:25:14.798Z,3.22
2023-04-12T09:27:48.871Z,3.03
2023-04-12T09:30:20.499Z,3.13
2023-04-12T09:32:50.840Z,3.80
2023-04-12T09:35:17.873Z,3.53
2023-04-12T09:37:44.849Z,3.65
2023-04-12T09:40:11.927Z,3.30
2023-04-12T09:42:59.335Z,3.53
2023-04-12T09:45:28.045Z,3.30
2023-04-12T09:47:55.784Z,4.05
2023-04-12T09:50:28.478Z,4.65
2023-04-12T09:55:28.038Z,4.35
2023-04-12T09:57:56.121Z,4.82
2023-04-12T10:00:25.536Z,5.15
2023-04-12T10:02:54.760Z,5.05
2023-04-12T10:05:25.595Z,5.57
2023-04-12T10:07:53.321Z,5.63
2023-04-12T10:10:21.395Z,5.63
2023-04-12T10:12:51.979Z,5.90
2023-04-12T10:15:21.216Z,6.82
2023-04-12T10:17:55.738Z,5.72
2023-04-12T10:20:26.181Z,6.47
2023-04-12T10:22:58.098Z,6.65
2023-04-12T10:25:27.234Z,7.40
2023-04-12T10:27:54.175Z,7.75
2023-04-12T10:30:31.582Z,7.65
2023-04-12T10:33:04.912Z,6.90
2023-04-12T10:35:51.919Z,7.32
2023-04-12T10:38:19.051Z,6.43
2023-04-12T10:41:24.914Z,5.63
2023-04-12T10:43:52.643Z,5.45
2023-04-12T10:46:38.160Z,4.07
2023-04-12T10:49:11.651Z,5.10
2023-04-12T10:51:38.724Z,3.63
2023-04-12T10:54:09.694Z,3.92
2023-04-12T10:56:41.585Z,3.83
2023-04-12T10:59:13.358Z,4.18
2023-04-12T11:02:03.048Z,4.38
2023-04-12T11:04:30.404Z,4.10
2023-04-12T11:07:10.118Z,3.53
2023-04-12T11:09:57.773Z,3.97
2023-04-12T11:12:29.244Z,3.58
2023-04-12T11:15:01.306Z,3.45
2023-04-12T11:17:37.806Z,3.78
2023-04-12T11:20:05.532Z,4.10
2023-04-12T11:22:33.402Z,3.83
2023-04-12T11:25:03.098Z,3.65
2023-04-12T11:27:32.404Z,3.67
2023-04-12T11:30:01.154Z,3.78
2023-04-12T11:32:30.257Z,4.55
2023-04-12T11:34:58.502Z,3.78
2023-04-12T11:37:30.289Z,4.65
2023-04-12T11:39:58.340Z,4.25
2023-04-12T11:42:27.130Z,4.63
2023-04-12T11:44:58.914Z,4.22
2023-04-12T11:47:28.364Z,3.60
2023-04-12T11:49:57.218Z,2.33
2023-04-12T11:52:32.092Z,3.03
2023-04-12T11:55:10.918Z,3.38
2023-04-12T11:57:39.201Z,3.65
2023-04-12T12:00:06.884Z,3.22
2023-04-12T12:02:48.988Z,3.40
2023-04-12T12:05:20.506Z,3.20
2023-04-12T12:07:47.532Z,2.70
2023-04-12T12:10:24.181Z,2.80
2023-04-12T12:13:03.337Z,3.55
2023-04-12T12:15:31.413Z,3.20
2023-04-12T12:17:58.282Z,2.55
2023-04-12T12:20:26.757Z,3.58
2023-04-12T12:22:53.734Z,3.03
2023-04-12T12:25:20.648Z,3.58
2023-04-12T12:27:51.300Z,3.97
2023-04-12T12:30:20.423Z,3.85
2023-04-12T12:32:50.780Z,3.15
2023-04-12T12:35:19.284Z,4.22
2023-04-12T12:37:55.880Z,3.42
2023-04-12T12:40:32.257Z,3.28
2023-04-12T12:42:59.665Z,3.83
2023-04-12T12:45:29.021Z,4.50
2023-04-12T12:47:59.133Z,3.28
2023-04-12T12:50:27.914Z,2.70
2023-04-12T12:52:57.859Z,2.95
2023-04-12T12:55:24.961Z,2.80
2023-04-12T12:58:06.963Z,2.90
2023-04-12T13:00:36.309Z,3.40
2023-04-12T13:03:03.557Z,3.00
2023-04-12T13:05:30.749Z,3.28
2023-04-12T13:07:57.560Z,3.60
2023-04-12T13:10:26.427Z,2.80
2023-04-12T13:12:54.588Z,2.92
2023-04-12T13:15:23.582Z,4.00
2023-04-12T13:17:57.008Z,3.17
2023-04-12T13:22:52.115Z,3.03
2023-04-12T13:25:22.011Z,2.40
2023-04-12T13:27:49.561Z,2.15
2023-04-12T13:30:17.615Z,2.97
2023-04-12T13:32:47.597Z,2.17
2023-04-12T13:35:14.399Z,2.65
2023-04-12T13:37:41.969Z,1.98
2023-04-12T13:40:09.259Z,2.92
2023-04-12T13:42:36.178Z,1.80
2023-04-12T13:45:04.086Z,2.75
2023-04-12T13:47:33.583Z,2.80
2023-04-12T13:50:03.338Z,3.33
2023-04-12T13:52:30.083Z,2.40
2023-04-12T13:54:59.165Z,3.08
2023-04-12T13:57:26.253Z,2.83
2023-04-12T13:59:53.064Z,2.38
2023-04-12T14:02:20.041Z,3.08
2023-04-12T14:04:55.159Z,2.80
2023-04-12T14:07:22.852Z,2.25
2023-04-12T14:09:49.863Z,2.13
2023-04-12T14:12:16.667Z,1.60
2023-04-12T14:14:43.539Z,2.15
2023-04-12T14:17:11.446Z,2.47
2023-04-12T14:19:38.600Z,2.10
2023-04-12T14:22:05.475Z,2.30
2023-04-12T14:24:32.243Z,2.60
2023-04-12T14:27:01.072Z,3.05
2023-04-12T14:29:28.129Z,2.22
2023-04-12T14:31:54.934Z,2.50
2023-04-12T14:34:21.767Z,2.53
2023-04-12T14:36:48.713Z,2.88
2023-04-12T14:39:16.249Z,2.92
2023-04-12T14:41:43.168Z,2.63
2023-04-12T14:44:09.912Z,1.63
2023-04-12T14:46:36.700Z,2.58
2023-04-12T14:49:03.483Z,2.58
2023-04-12T14:51:30.400Z,2.00
2023-04-12T14:53:58.038Z,1.98
2023-04-12T14:56:28.669Z,2.75
2023-04-12T14:58:57.592Z,5.45
2023-04-12T15:01:25.588Z,1.88
2023-04-12T15:03:53.614Z,1.85
2023-04-12T15:06:22.810Z,2.42
2023-04-12T15:08:54.388Z,1.95
2023-04-12T15:11:26.312Z,2.50
2023-04-12T15:13:53.762Z,2.13
2023-04-12T15:16:20.839Z,2.40
2023-04-12T15:18:47.775Z,1.48
2023-04-12T15:21:14.596Z,1.90
2023-04-12T15:23:41.900Z,1.70
2023-04-12T15:26:14.831Z,1.85
2023-04-12T15:28:42.211Z,2.20
2023-04-12T15:31:09.564Z,1.85
2023-04-12T15:33:37.135Z,1.63
2023-04-12T15:36:05.240Z,2.42
2023-04-12T15:38:32.101Z,2.88
2023-04-12T15:41:02.516Z,3.08
2023-04-12T15:43:29.496Z,1.92
2023-04-12T15:45:56.553Z,1.95
2023-04-12T15:48:24.754Z,2.45
2023-04-12T15:50:53.580Z,2.42
2023-04-12T15:53:23.150Z,2.13
2023-04-12T15:55:57.924Z,2.22
2023-04-12T15:58:27.466Z,2.60
2023-04-12T16:00:54.741Z,2.95
2023-04-12T16:03:23.410Z,2.95
2023-04-12T16:05:54.446Z,2.65
2023-04-12T16:08:22.423Z,2.88
2023-04-12T16:10:50.350Z,3.33
2023-04-12T16:13:17.419Z,2.80
2023-04-12T16:15:44.460Z,3.42
2023-04-12T16:18:11.830Z,2.80
2023-04-12T16:20:40.686Z,2.53
2023-04-12T16:23:07.852Z,2.85
2023-04-12T16:25:35.770Z,2.80
2023-04-12T16:28:02.791Z,3.20
2023-04-12T16:30:32.060Z,2.60
2023-04-12T16:32:59.255Z,3.67
2023-04-12T16:35:27.385Z,3.38
2023-04-12T16:37:54.718Z,3.72
2023-04-12T16:40:22.502Z,3.35
2023-04-12T16:42:49.416Z,3.38
2023-04-12T16:45:16.265Z,3.85
2023-04-12T16:47:45.783Z,4.47
2023-04-12T16:50:13.472Z,4.00
2023-04-12T16:52:41.278Z,3.42
2023-04-12T16:55:11.707Z,2.63
2023-04-12T16:57:40.734Z,2.97
2023-04-12T17:00:21.354Z,3.08
2023-04-12T17:02:53.910Z,3.22
2023-04-12T17:05:23.036Z,3.28
2023-04-12T17:07:54.178Z,3.67
2023-04-12T17:10:23.474Z,3.38
2023-04-12T17:12:56.189Z,3.33
2023-04-12T17:15:23.412Z,3.85
2023-04-12T17:17:52.647Z,4.20
2023-04-12T17:20:22.327Z,4.00
2023-04-12T17:22:49.996Z,3.33
2023-04-12T17:25:18.716Z,3.95
2023-04-12T17:27:47.562Z,3.25
2023-04-12T17:30:16.767Z,2.90
2023-04-12T17:32:50.015Z,1.98
2023-04-12T17:35:18.159Z,1.60
2023-04-12T17:37:47.019Z,1.88
2023-04-12T17:40:15.189Z,1.83
2023-04-12T17:42:44.580Z,1.27
2023-04-12T17:45:15.836Z,1.40
2023-04-12T17:47:43.873Z,1.42
2023-04-12T17:50:11.722Z,1.00
2023-04-12T17:52:38.805Z,0.90
2023-04-12T17:55:07.296Z,0.70
2023-04-12T17:57:34.122Z,1.05
2023-04-12T18:00:00.996Z,0.65
2023-04-12T18:02:28.137Z,1.23
2023-04-12T18:04:55.326Z,1.10
2023-04-12T18:07:23.115Z,0.88
2023-04-12T18:09:51.174Z,0.80
2023-04-12T18:12:18.457Z,0.85
2023-04-12T18:14:45.383Z,1.02
2023-04-12T18:17:12.500Z,1.05
2023-04-12T18:19:39.935Z,1.00
2023-04-12T18:22:06.765Z,0.90
2023-04-12T18:24:33.606Z,1.63
2023-04-12T18:27:01.823Z,1.05
2023-04-12T18:29:28.643Z,1.50
2023-04-12T18:31:55.860Z,0.93
2023-04-12T18:34:22.981Z,1.00
2023-04-12T18:36:50.118Z,0.75
2023-04-12T18:39:16.887Z,1.33
2023-04-12T18:41:43.672Z,1.27
2023-04-12T18:44:11.952Z,1.13
2023-04-12T18:46:40.293Z,1.20
2023-04-12T18:49:08.284Z,1.05
2023-04-12T18:51:36.249Z,1.13
2023-04-12T18:54:03.368Z,1.00
2023-04-12T18:56:30.160Z,1.40
2023-04-12T18:58:57.090Z,1.00
2023-04-12T19:01:24.977Z,1.10
2023-04-12T19:03:52.646Z,1.88
2023-04-12T19:06:19.745Z,1.05
2023-04-12T19:08:47.024Z,1.38
2023-04-12T19:11:13.900Z,1.40
2023-04-12T19:13:40.628Z,1.30
2023-04-12T19:16:07.916Z,1.00
2023-04-12T19:18:35.412Z,1.50
2023-04-12T19:21:02.865Z,1.35
2023-04-12T19:23:31.461Z,1.20
2023-04-12T19:26:07.100Z,1.25
2023-04-12T19:28:33.841Z,1.63
2023-04-12T19:31:04.346Z,1.00
2023-04-12T19:33:31.448Z,1.50
2023-04-12T19:35:58.852Z,1.17
2023-04-12T19:38:25.766Z,1.45
2023-04-12T19:40:54.587Z,1.45
2023-04-12T19:43:21.473Z,1.30
2023-04-12T19:45:48.666Z,1.50
2023-04-12T19:48:17.067Z,1.90
2023-04-12T19:50:47.801Z,1.30
2023-04-12T19:53:18.106Z,1.30
2023-04-12T19:55:45.277Z,1.75
2023-04-12T19:58:13.497Z,1.52
2023-04-12T20:00:41.115Z,1.13
2023-04-12T20:03:10.817Z,1.42
2023-04-12T20:05:38.516Z,1.42
2023-04-12T20:08:05.358Z,1.50
2023-04-12T20:10:32.144Z,1.75
2023-04-12T20:12:59.105Z,1.33
2023-04-12T20:15:25.900Z,1.45
2023-04-12T20:17:53.547Z,1.45
2023-04-12T20:20:20.857Z,1.20
2023-04-12T20:22:51.652Z,1.10
2023-04-12T20:25:20.764Z,1.60
2023-04-12T20:27:51.765Z,1.88
2023-04-12T20:30:20.496Z,1.48
2023-04-12T20:32:49.366Z,1.38
2023-04-12T20:35:18.711Z,1.60
2023-04-12T20:37:49.453Z,1.90
2023-04-12T20:40:16.607Z,1.38
2023-04-12T20:42:45.024Z,2.03
2023-04-12T20:45:12.380Z,1.65
2023-04-12T20:47:39.623Z,1.80
2023-04-12T20:50:07.866Z,1.73
2023-04-12T20:52:35.116Z,1.67
2023-04-12T20:55:02.335Z,1.60
2023-04-12T20:57:30.405Z,1.48
2023-04-12T20:59:57.258Z,1.58
2023-04-12T21:02:24.642Z,1.63
2023-04-12T21:04:52.160Z,2.38
2023-04-12T21:07:20.300Z,1.70
2023-04-12T21:09:47.032Z,2.10
2023-04-12T21:12:14.856Z,1.80
2023-04-12T21:14:41.771Z,1.50
2023-04-12T21:17:08.417Z,1.55
2023-04-12T21:19:41.776Z,1.75
2023-04-12T21:22:08.729Z,1.80
2023-04-12T21:24:38.457Z,1.70
2023-04-12T21:27:09.356Z,2.00
2023-04-12T21:29:41.491Z,2.00
2023-04-12T21:32:09.393Z,1.90
2023-04-12T21:34:37.435Z,2.25
2023-04-12T21:37:04.677Z,1.65
2023-04-12T21:39:32.378Z,2.17
2023-04-12T21:41:59.128Z,2.30
2023-04-12T21:44:26.849Z,1.85
2023-04-12T21:46:53.587Z,2.03
2023-04-12T21:49:20.508Z,1.77
2023-04-12T21:51:49.372Z,1.65
2023-04-12T21:54:16.646Z,2.08
2023-04-12T21:56:43.851Z,1.85
2023-04-12T21:59:10.659Z,2.25
2023-04-12T22:01:38.101Z,1.92
2023-04-12T22:04:05.167Z,1.98
2023-04-12T22:06:32.059Z,1.80
2023-04-12T22:09:02.403Z,2.10
2023-04-12T22:11:30.561Z,1.60
2023-04-12T22:13:58.153Z,1.70
2023-04-12T22:16:25.251Z,2.05
2023-04-12T22:18:53.038Z,1.83
2023-04-12T22:21:20.699Z,2.05
2023-04-12T22:23:47.481Z,2.28
2023-04-12T22:26:15.300Z,2.45
2023-04-12T22:28:44.139Z,2.45
2023-04-12T22:31:16.258Z,2.25
2023-04-12T22:33:47.379Z,2.65
2023-04-12T22:36:14.228Z,2.40
2023-04-12T22:38:41.161Z,2.38
2023-04-12T22:41:08.074Z,3.10
2023-04-12T22:43:42.734Z,2.78
2023-04-12T22:46:16.269Z,2.78
2023-04-12T22:48:47.896Z,2.50
2023-04-12T22:51:15.468Z,2.88
2023-04-12T22:53:43.440Z,2.58
2023-04-12T22:56:11.185Z,2.58
2023-04-12T22:58:40.137Z,2.42
2023-04-12T23:01:10.774Z,2.28
2023-04-12T23:03:38.192Z,2.55
2023-04-12T23:06:05.427Z,2.70
2023-04-12T23:08:32.373Z,3.28
2023-04-12T23:11:02.385Z,2.80
2023-04-12T23:13:35.398Z,2.80
2023-04-12T23:16:05.794Z,2.90
2023-04-12T23:18:33.056Z,3.13
2023-04-12T23:21:01.419Z,3.22
2023-04-12T23:23:28.396Z,3.22
2023-04-12T23:25:55.646Z,2.90
2023-04-12T23:28:26.446Z,3.25
2023-04-12T23:30:53.370Z,3.10
2023-04-12T23:33:21.743Z,3.65
2023-04-12T23:35:49.586Z,3.00
2023-04-12T23:38:23.479Z,3.15
2023-04-12T23:40:54.210Z,3.50
2023-04-12T23:43:21.957Z,3.35
2023-04-12T23:45:49.368Z,3.20
2023-04-12T23:48:19.276Z,3.60
2023-04-12T23:50:46.790Z,3.70
2023-04-12T23:53:14.168Z,3.78
2023-04-12T23:55:47.454Z,3.03
2023-04-12T23:58:14.437Z,3.50
